createdAt,value
2022-10-16T00:01:46.633Z,99342.30
2022-10-16T00:04:15.038Z,99345.35
2022-10-16T00:06:43.225Z,99346.21
2022-10-16T00:09:11.978Z,99348.16
2022-10-16T00:11:41.775Z,99353.05
2022-10-16T00:14:15.790Z,99356.21
2022-10-16T00:16:44.126Z,99354.64
2022-10-16T00:19:13.635Z,99356.23
2022-10-16T00:21:41.849Z,99363.30
2022-10-16T00:24:11.397Z,99363.24
2022-10-16T00:26:41.543Z,99362.28
2022-10-16T00:29:10.922Z,99360.17
2022-10-16T00:31:39.174Z,99355.38
2022-10-16T00:34:07.364Z,99353.36
2022-10-16T00:36:35.546Z,99352.46
2022-10-16T00:39:04.765Z,99354.80
2022-10-16T00:41:33.564Z,99354.26
2022-10-16T00:44:22.871Z,99359.98
2022-10-16T00:46:51.832Z,99361.48
2022-10-16T00:49:21.994Z,99362.04
2022-10-16T00:51:55.211Z,99365.63
2022-10-16T00:54:32.585Z,99367.70
2022-10-16T00:57:04.142Z,99367.08
2022-10-16T00:59:37.121Z,99371.61
2022-10-16T01:02:07.758Z,99369.27
2022-10-16T01:04:41.665Z,99366.57
2022-10-16T01:07:31.474Z,99368.47
2022-10-16T01:10:27.987Z,99368.58
2022-10-16T01:13:02.403Z,99371.27
2022-10-16T01:15:58.919Z,99373.57
2022-10-16T01:18:40.933Z,99376.49
2022-10-16T01:21:23.334Z,99372.27
2022-10-16T01:24:27.450Z,99372.98
2022-10-16T01:27:20.418Z,99371.14
2022-10-16T01:30:02.106Z,99372.70
2022-10-16T01:32:30.498Z,99372.80
2022-10-16T01:35:01.358Z,99374.45
2022-10-16T01:37:50.060Z,99370.35
2022-10-16T01:40:22.429Z,99374.02
2022-10-16T01:43:06.484Z,99373.80
2022-10-16T01:45:37.024Z,99370.20
2022-10-16T01:48:10.807Z,99372.44
2022-10-16T01:50:42.987Z,99374.15
2022-10-16T01:53:14.867Z,99376.48
2022-10-16T01:55:47.330Z,99377.88
2022-10-16T01:58:16.279Z,99381.31
2022-10-16T02:00:48.048Z,99382.13
2022-10-16T02:03:21.056Z,99388.02
2022-10-16T02:05:57.742Z,99388.27
2022-10-16T02:08:29.780Z,99393.18
2022-10-16T02:11:01.390Z,99390.84
2022-10-16T02:13:39.189Z,99395.19
2022-10-16T02:16:08.738Z,99397.42
2022-10-16T02:18:37.036Z,99396.48
2022-10-16T02:21:24.763Z,99397.16
2022-10-16T02:24:14.018Z,99396.98
2022-10-16T02:26:52.945Z,99397.13
2022-10-16T02:29:25.994Z,99400.88
2022-10-16T02:32:00.163Z,99400.09
2022-10-16T02:34:31.800Z,99401.80
2022-10-16T02:37:03.234Z,99401.50
2022-10-16T02:39:32.251Z,99397.23
2022-10-16T02:42:00.467Z,99397.38
2022-10-16T02:44:28.613Z,99399.98
2022-10-16T02:46:56.849Z,99403.91
2022-10-16T02:49:25.003Z,99404.96
2022-10-16T02:51:53.105Z,99403.69
2022-10-16T02:54:21.437Z,99404.00
2022-10-16T02:56:49.567Z,99406.05
2022-10-16T02:59:17.734Z,99406.79
2022-10-16T03:01:45.913Z,99405.30
2022-10-16T03:04:14.068Z,99408.92
2022-10-16T03:06:42.263Z,99410.09
2022-10-16T03:09:10.522Z,99406.05
2022-10-16T03:11:38.681Z,99399.47
2022-10-16T03:14:06.899Z,99399.67
2022-10-16T03:16:35.166Z,99401.48
2022-10-16T03:19:03.413Z,99401.73
2022-10-16T03:21:31.637Z,99401.48
2022-10-16T03:23:59.859Z,99403.00
2022-10-16T03:26:28.083Z,99403.33
2022-10-16T03:28:56.309Z,99405.40
2022-10-16T03:31:24.598Z,99405.23
2022-10-16T03:33:52.713Z,99410.92
2022-10-16T03:36:20.863Z,99411.40
2022-10-16T03:38:49.072Z,99409.30
2022-10-16T03:41:17.243Z,99413.00
2022-10-16T03:43:45.414Z,99415.50
2022-10-16T03:46:13.578Z,99416.86
2022-10-16T03:48:41.880Z,99420.34
2022-10-16T03:51:10.358Z,99419.93
2022-10-16T03:53:38.593Z,99418.34
2022-10-16T03:56:07.199Z,99422.05
2022-10-16T03:58:35.421Z,99422.13
2022-10-16T04:01:03.815Z,99424.36
2022-10-16T04:03:32.049Z,99425.81
2022-10-16T04:06:00.205Z,99430.66
2022-10-16T04:08:28.478Z,99439.81
2022-10-16T04:10:56.649Z,99446.70
2022-10-16T04:13:25.015Z,99448.46
2022-10-16T04:15:53.268Z,99452.65
2022-10-16T04:18:21.410Z,99455.73
2022-10-16T04:20:49.503Z,99457.65
2022-10-16T04:23:17.838Z,99452.48
2022-10-16T04:25:45.947Z,99451.33
2022-10-16T04:28:14.093Z,99453.44
2022-10-16T04:30:42.303Z,99455.77
2022-10-16T04:33:11.173Z,99454.17
2022-10-16T04:35:39.564Z,99456.09
2022-10-16T04:38:07.829Z,99457.08
2022-10-16T04:40:37.853Z,99453.60
2022-10-16T04:43:06.940Z,99453.89
2022-10-16T04:45:35.180Z,99451.71
2022-10-16T04:48:03.407Z,99446.08
2022-10-16T04:50:31.546Z,99445.33
2022-10-16T04:53:08.558Z,99445.99
2022-10-16T04:55:37.336Z,99446.02
2022-10-16T04:58:05.754Z,99453.02
2022-10-16T05:00:34.547Z,99454.80
2022-10-16T05:03:02.869Z,99461.12
2022-10-16T05:05:30.985Z,99463.73
2022-10-16T05:07:59.190Z,99464.30
2022-10-16T05:10:27.522Z,99465.46
2022-10-16T05:12:55.645Z,99467.26
2022-10-16T05:15:26.194Z,99466.86
2022-10-16T05:17:56.061Z,99471.64
2022-10-16T05:20:24.921Z,99472.70
2022-10-16T05:22:53.110Z,99476.02
2022-10-16T05:25:21.275Z,99475.98
2022-10-16T05:27:50.788Z,99478.23
2022-10-16T05:30:19.713Z,99477.04
2022-10-16T05:32:50.269Z,99479.98
2022-10-16T05:35:20.488Z,99483.28
2022-10-16T05:37:49.234Z,99485.67
2022-10-16T05:40:18.079Z,99483.38
2022-10-16T05:42:46.849Z,99486.45
2022-10-16T05:45:15.013Z,99488.11
2022-10-16T05:47:43.605Z,99491.27
2022-10-16T05:50:11.866Z,99493.64
2022-10-16T05:52:40.019Z,99495.08
2022-10-16T05:55:08.637Z,99497.83
2022-10-16T05:57:36.893Z,99498.30
2022-10-16T06:00:06.126Z,99499.88
2022-10-16T06:02:41.000Z,99501.23
2022-10-16T06:05:09.525Z,99505.59
2022-10-16T06:07:37.946Z,99508.45
2022-10-16T06:10:06.890Z,99508.11
2022-10-16T06:12:35.044Z,99507.77
2022-10-16T06:15:03.502Z,99509.83
2022-10-16T06:17:31.697Z,99511.73
2022-10-16T06:19:59.814Z,99514.04
2022-10-16T06:22:28.057Z,99519.98
2022-10-16T06:24:56.308Z,99526.20
2022-10-16T06:27:24.570Z,99529.13
2022-10-16T06:29:53.039Z,99531.75
2022-10-16T06:32:21.990Z,99532.83
2022-10-16T06:34:50.140Z,99533.19
2022-10-16T06:37:18.279Z,99539.02
2022-10-16T06:39:46.495Z,99544.34
2022-10-16T06:42:14.701Z,99542.20
2022-10-16T06:44:43.027Z,99542.14
2022-10-16T06:47:12.454Z,99542.92
2022-10-16T06:49:40.649Z,99548.08
2022-10-16T06:52:08.862Z,99546.55
2022-10-16T06:54:42.292Z,99551.52
2022-10-16T06:57:11.007Z,99557.27
2022-10-16T06:59:39.279Z,99559.61
2022-10-16T07:02:08.477Z,99564.82
2022-10-16T07:04:37.873Z,99573.65
2022-10-16T07:07:08.583Z,99574.18
2022-10-16T07:09:38.103Z,99571.57
2022-10-16T07:12:06.319Z,99569.70
2022-10-16T07:14:34.518Z,99566.76
2022-10-16T07:17:03.939Z,99568.92
2022-10-16T07:19:34.512Z,99567.34
2022-10-16T07:22:04.295Z,99570.73
2022-10-16T07:24:32.822Z,99570.92
2022-10-16T07:27:01.100Z,99571.20
2022-10-16T07:29:29.327Z,99569.56
2022-10-16T07:31:57.686Z,99571.45
2022-10-16T07:34:25.866Z,99569.65
2022-10-16T07:36:54.120Z,99566.50
2022-10-16T07:39:22.286Z,99567.61
2022-10-16T07:41:50.475Z,99569.71
2022-10-16T07:44:18.633Z,99572.89
2022-10-16T07:46:48.114Z,99576.25
2022-10-16T07:49:16.279Z,99578.95
2022-10-16T07:51:44.427Z,99583.48
2022-10-16T07:54:12.797Z,99579.61
2022-10-16T07:56:43.701Z,99579.89
2022-10-16T07:59:12.506Z,99578.66
2022-10-16T08:01:43.248Z,99578.87
2022-10-16T08:04:11.629Z,99582.48
2022-10-16T08:06:41.931Z,99584.04
2022-10-16T08:09:10.195Z,99585.80
2022-10-16T08:11:38.345Z,99587.43
2022-10-16T08:14:06.614Z,99587.20
2022-10-16T08:16:34.753Z,99588.30
2022-10-16T08:19:03.161Z,99588.91
2022-10-16T08:21:31.389Z,99584.62
2022-10-16T08:24:00.217Z,99584.98
2022-10-16T08:26:28.521Z,99583.65
2022-10-16T08:28:57.373Z,99584.60
2022-10-16T08:31:27.378Z,99585.80
2022-10-16T08:33:55.896Z,99587.91
2022-10-16T08:36:24.193Z,99587.27
2022-10-16T08:38:54.685Z,99587.89
2022-10-16T08:41:35.949Z,99593.10
2022-10-16T08:44:25.685Z,99598.27
2022-10-16T08:47:11.735Z,99594.45
2022-10-16T08:49:44.213Z,99594.19
2022-10-16T08:52:15.138Z,99592.99
2022-10-16T08:54:48.444Z,99594.71
2022-10-16T08:57:25.710Z,99592.73
2022-10-16T08:59:56.561Z,99596.09
2022-10-16T09:02:28.329Z,99594.89
2022-10-16T09:05:16.146Z,99589.86
2022-10-16T09:10:54.957Z,99597.70
2022-10-16T09:14:13.870Z,99597.71
2022-10-16T09:16:49.095Z,99597.05
2022-10-16T09:19:37.661Z,99597.27
2022-10-16T09:22:19.444Z,99595.77
2022-10-16T09:24:47.659Z,99597.87
2022-10-16T09:27:16.070Z,99596.48
2022-10-16T09:29:44.206Z,99597.21
2022-10-16T09:32:19.310Z,99602.64
2022-10-16T09:34:58.727Z,99600.84
2022-10-16T09:37:27.398Z,99602.37
2022-10-16T09:39:56.255Z,99596.84
2022-10-16T09:42:32.378Z,99599.30
2022-10-16T09:45:00.642Z,99606.25
2022-10-16T09:47:30.868Z,99611.66
2022-10-16T09:50:07.320Z,99615.66
2022-10-16T09:52:35.611Z,99616.98
2022-10-16T09:55:17.720Z,99622.30
2022-10-16T09:57:53.590Z,99619.16
2022-10-16T10:00:23.902Z,99621.91
2022-10-16T10:05:30.153Z,99624.55
2022-10-16T10:08:01.121Z,99622.24
2022-10-16T10:10:33.062Z,99620.87
2022-10-16T10:13:02.572Z,99624.84
2022-10-16T10:15:42.621Z,99626.30
2022-10-16T10:18:23.139Z,99621.36
2022-10-16T10:23:35.978Z,99628.40
2022-10-16T10:26:06.929Z,99633.05
2022-10-16T10:28:54.515Z,99633.56
2022-10-16T10:31:29.603Z,99637.96
2022-10-16T10:34:25.243Z,99639.33
2022-10-16T10:37:24.235Z,99635.75
2022-10-16T10:40:21.546Z,99640.10
2022-10-16T10:43:05.994Z,99639.31
2022-10-16T10:45:44.350Z,99640.44
2022-10-16T10:48:12.543Z,99642.33
2022-10-16T10:50:50.482Z,99647.29
2022-10-16T10:53:30.827Z,99644.09
2022-10-16T10:56:26.325Z,99639.33
2022-10-16T10:59:13.539Z,99634.77
2022-10-16T11:01:56.839Z,99634.80
2022-10-16T11:04:56.928Z,99633.36
2022-10-16T11:07:32.371Z,99632.91
2022-10-16T11:10:16.421Z,99629.58
2022-10-16T11:12:53.949Z,99630.01
2022-10-16T11:15:32.270Z,99628.40
2022-10-16T11:18:08.087Z,99628.66
2022-10-16T11:20:43.902Z,99629.27
2022-10-16T11:23:19.632Z,99629.83
2022-10-16T11:25:51.275Z,99628.83
2022-10-16T11:28:49.387Z,99627.48
2022-10-16T11:31:24.794Z,99628.09
2022-10-16T11:33:58.739Z,99628.45
2022-10-16T11:36:34.343Z,99626.82
2022-10-16T11:39:17.581Z,99622.61
2022-10-16T11:41:51.757Z,99624.74
2022-10-16T11:44:57.487Z,99626.05
2022-10-16T11:48:05.501Z,99624.22
2022-10-16T11:51:04.371Z,99624.55
2022-10-16T11:54:00.803Z,99624.96
2022-10-16T11:56:32.700Z,99624.66
2022-10-16T11:59:08.866Z,99624.44
2022-10-16T12:01:44.343Z,99622.90
2022-10-16T12:04:34.002Z,99629.09
2022-10-16T12:07:15.721Z,99625.95
2022-10-16T12:09:44.186Z,99624.52
2022-10-16T12:12:31.458Z,99626.55
2022-10-16T12:15:40.888Z,99622.68
2022-10-16T12:18:25.821Z,99617.62
2022-10-16T12:21:07.904Z,99618.23
2022-10-16T12:23:48.998Z,99615.49
2022-10-16T12:26:29.897Z,99616.00
2022-10-16T12:29:16.064Z,99618.86
2022-10-16T12:31:57.733Z,99622.45
2022-10-16T12:34:35.704Z,99622.48
2022-10-16T12:37:24.618Z,99623.13
2022-10-16T12:39:57.822Z,99623.29
2022-10-16T12:42:29.420Z,99631.30
2022-10-16T12:44:58.257Z,99635.34
2022-10-16T12:47:32.593Z,99640.57
2022-10-16T12:50:03.200Z,99638.15
2022-10-16T12:52:40.393Z,99641.23
2022-10-16T12:55:17.265Z,99642.93
2022-10-16T12:58:17.472Z,99642.34
2022-10-16T13:00:59.539Z,99641.77
2022-10-16T13:04:00.528Z,99636.61
2022-10-16T13:06:47.461Z,99636.75
2022-10-16T13:09:50.713Z,99638.17
2022-10-16T13:12:18.846Z,99637.92
2022-10-16T13:15:03.869Z,99637.04
2022-10-16T13:17:44.393Z,99633.48
2022-10-16T13:20:37.210Z,99632.77
2022-10-16T13:23:08.226Z,99633.48
2022-10-16T13:25:52.462Z,99636.25
2022-10-16T13:28:24.281Z,99635.85
2022-10-16T13:30:55.826Z,99640.23
2022-10-16T13:33:40.878Z,99641.41
2022-10-16T13:36:22.582Z,99643.88
2022-10-16T13:39:22.717Z,99650.03
2022-10-16T13:42:09.087Z,99656.21
2022-10-16T13:44:47.207Z,99658.27
2022-10-16T13:47:20.886Z,99659.40
2022-10-16T13:50:05.437Z,99659.77
2022-10-16T13:52:33.881Z,99661.24
2022-10-16T13:55:04.353Z,99667.20
2022-10-16T13:57:32.530Z,99670.64
2022-10-16T14:00:00.865Z,99672.05
2022-10-16T14:02:40.435Z,99672.25
2022-10-16T14:05:15.154Z,99674.21
2022-10-16T14:07:43.972Z,99678.30
2022-10-16T14:10:24.067Z,99681.03
2022-10-16T14:13:18.177Z,99679.37
2022-10-16T14:15:52.602Z,99679.55
2022-10-16T14:18:33.283Z,99677.60
2022-10-16T14:21:08.235Z,99679.32
2022-10-16T14:23:42.007Z,99678.07
2022-10-16T14:26:10.161Z,99682.07
2022-10-16T14:28:41.637Z,99684.77
2022-10-16T14:31:37.550Z,99692.25
2022-10-16T14:34:25.570Z,99691.30
2022-10-16T14:36:53.870Z,99692.05
2022-10-16T14:39:25.025Z,99692.73
2022-10-16T14:41:56.874Z,99693.20
2022-10-16T14:44:34.074Z,99689.04
2022-10-16T14:47:17.162Z,99688.60
2022-10-16T14:49:45.366Z,99689.98
2022-10-16T14:52:15.943Z,99692.63
2022-10-16T14:54:44.135Z,99693.77
2022-10-16T14:57:19.625Z,99695.59
2022-10-16T14:59:49.977Z,99698.89
2022-10-16T15:02:32.064Z,99699.27
2022-10-16T15:05:17.318Z,99699.59
2022-10-16T15:07:46.925Z,99700.85
2022-10-16T15:10:16.035Z,99701.98
2022-10-16T15:12:44.690Z,99699.91
2022-10-16T15:15:25.205Z,99700.08
2022-10-16T15:17:58.175Z,99696.72
2022-10-16T15:20:37.861Z,99695.23
2022-10-16T15:23:13.981Z,99693.70
2022-10-16T15:25:56.233Z,99689.38
2022-10-16T15:28:27.023Z,99688.86
2022-10-16T15:30:57.449Z,99691.75
2022-10-16T15:33:29.957Z,99689.12
2022-10-16T15:35:58.238Z,99692.98
2022-10-16T15:38:28.756Z,99696.02
2022-10-16T15:40:58.222Z,99693.20
2022-10-16T15:43:26.603Z,99692.06
2022-10-16T15:46:06.299Z,99699.59
2022-10-16T15:48:34.571Z,99707.05
2022-10-16T15:51:07.599Z,99709.88
2022-10-16T15:53:36.846Z,99718.23
2022-10-16T15:56:10.365Z,99721.70
2022-10-16T15:58:40.009Z,99720.61
2022-10-16T16:01:10.917Z,99719.73
2022-10-16T16:03:43.156Z,99725.08
2022-10-16T16:06:13.331Z,99732.77
2022-10-16T16:08:41.477Z,99741.16
2022-10-16T16:11:13.168Z,99743.81
2022-10-16T16:13:42.710Z,99744.36
2022-10-16T16:16:14.896Z,99753.85
2022-10-16T16:18:44.312Z,99754.77
2022-10-16T16:21:14.042Z,99758.75
2022-10-16T16:23:42.182Z,99768.81
2022-10-16T16:26:16.476Z,99776.45
2022-10-16T16:28:44.873Z,99780.60
2022-10-16T16:31:13.176Z,99781.13
2022-10-16T16:33:41.334Z,99780.27
2022-10-16T16:36:15.452Z,99784.21
2022-10-16T16:38:43.999Z,99790.86
2022-10-16T16:41:14.577Z,99791.58
2022-10-16T16:43:43.277Z,99792.77
2022-10-16T16:46:12.733Z,99790.22
2022-10-16T16:48:41.734Z,99791.34
2022-10-16T16:51:17.201Z,99793.61
2022-10-16T16:53:47.509Z,99793.39
2022-10-16T16:56:16.178Z,99796.73
2022-10-16T16:58:52.948Z,99797.79
2022-10-16T17:01:22.991Z,99801.92
2022-10-16T17:03:53.651Z,99800.17
2022-10-16T17:06:24.488Z,99803.52
2022-10-16T17:08:53.633Z,99807.54
2022-10-16T17:11:25.373Z,99811.59
2022-10-16T17:13:56.999Z,99814.65
2022-10-16T17:16:29.839Z,99821.91
2022-10-16T17:19:04.146Z,99832.14
2022-10-16T17:21:33.248Z,99835.30
2022-10-16T17:24:02.300Z,99839.73
2022-10-16T17:26:31.126Z,99841.41
2022-10-16T17:29:02.506Z,99844.14
2022-10-16T17:31:34.014Z,99843.12
2022-10-16T17:34:05.064Z,99845.03
2022-10-16T17:36:36.313Z,99845.50
2022-10-16T17:39:08.560Z,99841.99
2022-10-16T17:41:37.251Z,99843.06
2022-10-16T17:44:07.286Z,99845.58
2022-10-16T17:46:40.050Z,99840.84
2022-10-16T17:49:11.267Z,99839.81
2022-10-16T17:51:39.569Z,99839.27
2022-10-16T17:54:08.455Z,99844.58
2022-10-16T17:56:36.756Z,99841.36
2022-10-16T17:59:05.508Z,99837.68
2022-10-16T18:01:37.080Z,99834.63
2022-10-16T18:04:15.902Z,99840.98
2022-10-16T18:06:45.805Z,99847.77
2022-10-16T18:09:18.393Z,99854.67
2022-10-16T18:11:47.274Z,99860.35
2022-10-16T18:14:18.163Z,99862.25
2022-10-16T18:16:46.597Z,99866.50
2022-10-16T18:19:14.890Z,99873.64
2022-10-16T18:21:43.122Z,99875.02
2022-10-16T18:24:11.305Z,99875.14
2022-10-16T18:26:39.472Z,99876.30
2022-10-16T18:29:08.463Z,99876.84
2022-10-16T18:31:39.145Z,99882.34
2022-10-16T18:34:10.943Z,99884.05
2022-10-16T18:36:40.085Z,99884.60
2022-10-16T18:39:11.521Z,99884.05
2022-10-16T18:41:44.864Z,99887.83
2022-10-16T18:44:14.075Z,99886.23
2022-10-16T18:46:42.809Z,99893.55
2022-10-16T18:49:11.127Z,99893.52
2022-10-16T18:51:41.363Z,99899.99
2022-10-16T18:54:13.380Z,99906.27
2022-10-16T18:56:41.625Z,99909.63
2022-10-16T18:59:10.900Z,99910.98
2022-10-16T19:01:40.117Z,99915.69
2022-10-16T19:04:11.607Z,99918.45
2022-10-16T19:06:46.290Z,99925.33
2022-10-16T19:09:17.064Z,99929.25
2022-10-16T19:11:46.125Z,99932.52
2022-10-16T19:14:16.677Z,99938.39
2022-10-16T19:16:45.359Z,99943.11
2022-10-16T19:19:18.450Z,99946.53
2022-10-16T19:21:48.475Z,99949.39
2022-10-16T19:24:17.757Z,99951.73
2022-10-16T19:26:45.947Z,99957.31
2022-10-16T19:29:14.172Z,99963.27
2022-10-16T19:31:42.505Z,99967.57
2022-10-16T19:34:11.716Z,99971.46
2022-10-16T19:36:41.183Z,99973.13
2022-10-16T19:39:15.376Z,99976.30
2022-10-16T19:41:47.770Z,99977.32
2022-10-16T19:44:17.908Z,99981.15
2022-10-16T19:46:50.394Z,99981.02
2022-10-16T19:49:21.935Z,99983.73
2022-10-16T19:51:52.151Z,99985.87
2022-10-16T19:54:20.745Z,99985.89
2022-10-16T19:56:48.896Z,99984.23
2022-10-16T19:59:19.425Z,99986.13
2022-10-16T20:01:47.980Z,99992.08
2022-10-16T20:04:17.007Z,99994.13
2022-10-16T20:06:46.237Z,99994.31
2022-10-16T20:09:14.956Z,99995.40
2022-10-16T20:11:43.421Z,99995.36
2022-10-16T20:14:11.807Z,99995.76
2022-10-16T20:16:43.305Z,99996.27
2022-10-16T20:19:11.796Z,99997.40
2022-10-16T20:21:40.630Z,100000.11
2022-10-16T20:24:08.978Z,100002.23
2022-10-16T20:26:40.608Z,100002.36
2022-10-16T20:29:08.847Z,100006.28
2022-10-16T20:31:37.886Z,100010.06
2022-10-16T20:34:10.987Z,100013.34
2022-10-16T20:36:42.980Z,100012.48
2022-10-16T20:39:13.955Z,100008.47
2022-10-16T20:41:42.535Z,100014.59
2022-10-16T20:44:15.948Z,100017.15
2022-10-16T20:46:44.600Z,100021.83
2022-10-16T20:49:28.393Z,100026.33
2022-10-16T20:52:00.901Z,100030.48
2022-10-16T20:54:29.282Z,100032.52
2022-10-16T20:56:58.205Z,100032.15
2022-10-16T20:59:26.740Z,100034.02
2022-10-16T21:01:55.256Z,100034.66
2022-10-16T21:04:23.473Z,100031.30
2022-10-16T21:06:51.689Z,100034.20
2022-10-16T21:09:19.826Z,100035.60
2022-10-16T21:11:48.027Z,100034.26
2022-10-16T21:14:16.877Z,100038.55
2022-10-16T21:16:45.045Z,100038.55
2022-10-16T21:19:13.251Z,100043.02
2022-10-16T21:21:41.483Z,100048.06
2022-10-16T21:24:12.288Z,100053.08
2022-10-16T21:26:44.265Z,100057.27
2022-10-16T21:29:13.014Z,100053.66
2022-10-16T21:31:41.967Z,100056.96
2022-10-16T21:34:10.272Z,100064.21
2022-10-16T21:36:41.393Z,100065.33
2022-10-16T21:39:13.026Z,100067.54
2022-10-16T21:41:43.302Z,100073.09
2022-10-16T21:44:12.547Z,100075.88
2022-10-16T21:46:43.037Z,100079.05
2022-10-16T21:49:19.833Z,100083.11
2022-10-16T21:51:50.682Z,100083.18
2022-10-16T21:54:22.021Z,100082.16
2022-10-16T21:56:52.783Z,100084.93
2022-10-16T21:59:21.470Z,100086.90
2022-10-16T22:01:53.423Z,100091.35
2022-10-16T22:04:21.653Z,100090.27
2022-10-16T22:06:49.906Z,100091.29
2022-10-16T22:09:18.094Z,100093.67
2022-10-16T22:11:46.363Z,100090.98
2022-10-16T22:14:17.470Z,100094.17
2022-10-16T22:16:47.090Z,100100.64
2022-10-16T22:19:17.899Z,100100.69
2022-10-16T22:21:48.930Z,100099.30
2022-10-16T22:24:17.983Z,100102.04
2022-10-16T22:26:46.189Z,100108.52
2022-10-16T22:29:15.742Z,100112.59
2022-10-16T22:31:44.923Z,100111.00
2022-10-16T22:34:14.685Z,100110.05
2022-10-16T22:36:43.046Z,100110.06
2022-10-16T22:39:11.458Z,100117.80
2022-10-16T22:41:39.654Z,100119.38
2022-10-16T22:44:12.230Z,100116.31
2022-10-16T22:46:41.227Z,100115.31
2022-10-16T22:49:09.407Z,100117.62
2022-10-16T22:51:37.749Z,100116.97
2022-10-16T22:54:06.006Z,100117.02
2022-10-16T22:56:34.161Z,100119.51
2022-10-16T22:59:02.315Z,100121.69
2022-10-16T23:01:34.674Z,100122.25
2022-10-16T23:04:03.647Z,100125.45
2022-10-16T23:06:31.961Z,100124.86
2022-10-16T23:09:01.774Z,100124.10
2022-10-16T23:11:31.032Z,100124.60
2022-10-16T23:13:59.282Z,100122.05
2022-10-16T23:16:27.446Z,100121.27
2022-10-16T23:18:55.635Z,100123.27
2022-10-16T23:21:25.314Z,100124.48
2022-10-16T23:23:54.971Z,100126.30
2022-10-16T23:26:25.518Z,100127.88
2022-10-16T23:28:57.739Z,100129.92
2022-10-16T23:31:27.703Z,100131.08
2022-10-16T23:33:57.414Z,100132.80
2022-10-16T23:36:26.066Z,100133.02
2022-10-16T23:38:54.853Z,100134.84
2022-10-16T23:41:23.210Z,100142.39
2022-10-16T23:43:52.122Z,100143.77
2022-10-16T23:46:20.426Z,100143.63
2022-10-16T23:48:48.714Z,100146.92
2022-10-16T23:51:17.378Z,100145.02
2022-10-16T23:53:45.729Z,100141.25
2022-10-16T23:56:14.975Z,100143.20
2022-10-16T23:58:43.137Z,100139.70
